createdAt,value
2019-03-06T00:01:40.928Z,3.22
2019-03-06T00:04:10.142Z,3.21
2019-03-06T00:06:39.353Z,3.16
2019-03-06T00:09:08.958Z,3.10
2019-03-06T00:11:38.135Z,3.09
2019-03-06T00:14:07.387Z,3.10
2019-03-06T00:16:36.606Z,3.10
2019-03-06T00:19:05.807Z,3.09
2019-03-06T00:21:34.987Z,3.08
2019-03-06T00:24:04.314Z,3.06
2019-03-06T00:26:33.451Z,3.01
2019-03-06T00:29:02.649Z,3.00
2019-03-06T00:31:31.844Z,2.98
2019-03-06T00:34:01.055Z,2.92
2019-03-06T00:36:31.530Z,2.92
2019-03-06T00:39:00.727Z,2.90
2019-03-06T00:41:44.636Z,2.91
2019-03-06T00:44:13.853Z,2.88
2019-03-06T00:46:43.055Z,2.81
2019-03-06T00:49:12.247Z,2.81
2019-03-06T00:51:41.452Z,2.79
2019-03-06T00:54:10.830Z,2.75
2019-03-06T00:56:40.042Z,2.72
2019-03-06T00:59:09.238Z,2.68
2019-03-06T01:01:38.408Z,2.66
2019-03-06T01:04:07.694Z,2.61
2019-03-06T01:06:36.954Z,2.61
2019-03-06T01:09:07.362Z,2.56
2019-03-06T01:11:36.645Z,2.55
2019-03-06T01:14:05.823Z,2.52
2019-03-06T01:16:35.047Z,2.51
2019-03-06T01:19:04.263Z,2.47
2019-03-06T01:21:33.441Z,2.48
2019-03-06T01:24:02.627Z,2.45
2019-03-06T01:26:31.837Z,2.39
2019-03-06T01:29:01.007Z,2.37
2019-03-06T01:31:30.211Z,2.33
2019-03-06T01:34:11.049Z,2.32
2019-03-06T01:37:08.239Z,2.31
2019-03-06T01:39:56.364Z,2.29
2019-03-06T01:42:41.995Z,2.30
2019-03-06T01:45:12.196Z,2.31
2019-03-06T01:47:41.381Z,2.35
2019-03-06T01:50:13.225Z,2.39
2019-03-06T01:52:42.466Z,2.39
2019-03-06T01:55:13.678Z,2.39
2019-03-06T01:57:42.908Z,2.39
2019-03-06T02:00:15.340Z,2.40
2019-03-06T02:02:44.564Z,2.40
2019-03-06T02:05:14.032Z,2.40
2019-03-06T02:07:43.448Z,2.41
2019-03-06T02:10:13.334Z,2.39
2019-03-06T02:12:42.528Z,2.46
2019-03-06T02:15:33.471Z,2.53
2019-03-06T02:18:02.647Z,2.54
2019-03-06T02:20:31.828Z,2.57
2019-03-06T02:23:01.045Z,2.59
2019-03-06T02:25:30.400Z,2.65
2019-03-06T02:27:59.594Z,2.65
2019-03-06T02:30:30.562Z,2.66
2019-03-06T02:32:59.789Z,2.70
2019-03-06T02:35:29.370Z,1.80
2019-03-06T02:37:58.652Z,2.74
2019-03-06T02:40:27.847Z,2.80
2019-03-06T02:42:57.061Z,2.82
2019-03-06T02:45:26.250Z,2.83
2019-03-06T02:47:55.447Z,2.90
2019-03-06T02:50:25.008Z,2.95
2019-03-06T02:52:54.206Z,2.95
2019-03-06T02:55:23.462Z,3.01
2019-03-06T02:57:58.120Z,3.01
2019-03-06T03:00:51.242Z,2.98
2019-03-06T03:03:48.408Z,3.01
2019-03-06T03:06:23.148Z,3.03
2019-03-06T03:08:51.426Z,3.04
2019-03-06T03:11:20.674Z,3.08
2019-03-06T03:13:49.884Z,3.13
2019-03-06T03:16:19.084Z,3.17
2019-03-06T03:18:48.296Z,3.18
2019-03-06T03:21:17.492Z,3.21
2019-03-06T03:23:46.716Z,3.24
2019-03-06T03:26:15.917Z,3.30
2019-03-06T03:28:45.129Z,3.48
2019-03-06T03:31:14.282Z,3.57
2019-03-06T03:33:43.514Z,3.68
2019-03-06T03:36:12.706Z,3.75
2019-03-06T03:38:41.919Z,3.77
2019-03-06T03:41:11.104Z,3.81
2019-03-06T03:43:40.489Z,3.84
2019-03-06T03:46:09.741Z,3.92
2019-03-06T03:48:38.983Z,3.95
2019-03-06T03:51:08.198Z,3.97
2019-03-06T03:53:37.401Z,4.03
2019-03-06T03:56:06.765Z,4.09
2019-03-06T03:58:35.966Z,4.12
2019-03-06T04:01:05.409Z,4.20
2019-03-06T04:03:34.599Z,4.26
2019-03-06T04:06:03.814Z,4.30
2019-03-06T04:08:33.280Z,4.27
2019-03-06T04:11:02.492Z,4.27
2019-03-06T04:13:31.695Z,4.34
2019-03-06T04:16:00.947Z,4.39
2019-03-06T04:18:30.158Z,4.37
2019-03-06T04:20:59.328Z,4.38
2019-03-06T04:23:28.544Z,4.39
2019-03-06T04:25:57.721Z,4.47
2019-03-06T04:28:28.066Z,4.48
2019-03-06T04:30:57.401Z,4.48
2019-03-06T04:33:26.733Z,4.52
2019-03-06T04:35:55.922Z,4.49
2019-03-06T04:38:25.140Z,4.52
2019-03-06T04:40:54.382Z,4.54
2019-03-06T04:43:23.576Z,4.57
2019-03-06T04:45:52.774Z,4.59
2019-03-06T04:48:22.014Z,4.61
2019-03-06T04:50:51.196Z,4.62
2019-03-06T04:53:20.430Z,4.67
2019-03-06T04:55:49.635Z,4.68
2019-03-06T04:58:18.838Z,4.71
2019-03-06T05:00:48.034Z,4.76
2019-03-06T05:03:17.273Z,4.76
2019-03-06T05:05:46.484Z,4.78
2019-03-06T05:08:15.684Z,4.79
2019-03-06T05:10:44.924Z,4.78
2019-03-06T05:13:14.147Z,4.78
2019-03-06T05:15:43.375Z,4.83
2019-03-06T05:18:31.505Z,4.82
2019-03-06T05:21:00.773Z,4.82
2019-03-06T05:23:29.961Z,4.86
2019-03-06T05:25:59.165Z,4.82
2019-03-06T05:28:28.366Z,4.86
2019-03-06T05:30:57.569Z,4.82
2019-03-06T05:33:28.732Z,4.82
2019-03-06T05:36:42.778Z,4.85
2019-03-06T05:39:12.347Z,4.79
2019-03-06T05:41:41.593Z,4.78
2019-03-06T05:44:10.818Z,4.78
2019-03-06T05:46:40.034Z,4.77
2019-03-06T05:49:09.506Z,4.80
2019-03-06T05:51:38.698Z,4.80
2019-03-06T05:54:07.914Z,4.80
2019-03-06T05:56:37.111Z,4.91
2019-03-06T05:59:06.342Z,5.02
2019-03-06T06:01:35.616Z,5.07
2019-03-06T06:04:04.784Z,5.02
2019-03-06T06:06:34.012Z,5.06
2019-03-06T06:09:03.636Z,5.08
2019-03-06T06:11:32.792Z,5.10
2019-03-06T06:14:01.976Z,5.18
2019-03-06T06:16:31.177Z,5.22
2019-03-06T06:19:01.755Z,5.25
2019-03-06T06:21:51.853Z,5.31
2019-03-06T06:24:26.731Z,5.33
2019-03-06T06:26:55.955Z,5.38
2019-03-06T06:29:25.176Z,5.43
2019-03-06T06:31:54.521Z,5.50
2019-03-06T06:34:23.717Z,5.48
2019-03-06T06:36:52.949Z,5.52
2019-03-06T06:39:22.150Z,5.55
2019-03-06T06:41:51.336Z,5.59
2019-03-06T06:44:20.581Z,5.68
2019-03-06T06:46:49.811Z,5.74
2019-03-06T06:49:19.000Z,5.75
2019-03-06T06:52:46.963Z,5.81
2019-03-06T06:55:48.261Z,5.81
2019-03-06T06:58:57.060Z,5.83
2019-03-06T07:02:14.357Z,5.85
2019-03-06T07:05:10.564Z,5.86
2019-03-06T07:07:47.130Z,5.93
2019-03-06T07:10:34.051Z,6.01
2019-03-06T07:13:25.000Z,6.06
2019-03-06T07:16:13.319Z,6.09
2019-03-06T07:19:01.466Z,6.16
2019-03-06T07:21:44.422Z,6.29
2019-03-06T07:24:22.813Z,6.30
2019-03-06T07:27:15.386Z,6.39
2019-03-06T07:30:06.697Z,6.37
2019-03-06T07:32:53.683Z,6.42
2019-03-06T07:36:18.979Z,6.46
2019-03-06T07:38:50.879Z,6.52
2019-03-06T07:41:41.841Z,6.58
2019-03-06T07:44:30.670Z,6.69
2019-03-06T07:47:21.763Z,6.79
2019-03-06T07:50:12.205Z,6.83
2019-03-06T07:53:00.366Z,7.01
2019-03-06T07:55:37.281Z,7.20
2019-03-06T07:58:55.937Z,7.38
2019-03-06T08:01:27.890Z,7.46
2019-03-06T08:04:11.857Z,7.70
2019-03-06T08:06:43.598Z,7.87
2019-03-06T08:09:17.088Z,7.81
2019-03-06T08:12:00.770Z,7.87
2019-03-06T08:14:47.476Z,7.95
2019-03-06T08:17:27.894Z,8.08
2019-03-06T08:20:16.222Z,8.32
2019-03-06T08:23:02.250Z,8.25
2019-03-06T08:25:46.778Z,8.25
2019-03-06T08:28:16.012Z,8.18
2019-03-06T08:31:16.415Z,8.33
2019-03-06T08:33:45.715Z,8.53
2019-03-06T08:36:14.938Z,8.70
2019-03-06T08:38:44.254Z,8.78
2019-03-06T08:41:13.515Z,8.98
2019-03-06T08:43:42.725Z,9.16
2019-03-06T08:46:33.691Z,9.25
2019-03-06T08:49:26.678Z,9.33
2019-03-06T08:52:06.209Z,9.16
2019-03-06T08:55:03.572Z,8.98
2019-03-06T08:57:57.544Z,8.89
2019-03-06T09:01:01.051Z,8.91
2019-03-06T09:03:59.555Z,8.98
2019-03-06T09:06:47.678Z,9.08
2019-03-06T09:09:34.632Z,9.30
2019-03-06T09:12:31.844Z,9.39
2019-03-06T09:15:31.963Z,9.64
2019-03-06T09:18:29.073Z,10.02
2019-03-06T09:21:17.227Z,10.25
2019-03-06T09:24:14.493Z,10.27
2019-03-06T09:27:02.647Z,10.30
2019-03-06T09:29:39.982Z,10.60
2019-03-06T09:32:34.017Z,11.00
2019-03-06T09:35:22.202Z,11.38
2019-03-06T09:38:14.316Z,11.40
2019-03-06T09:40:58.374Z,11.53
2019-03-06T09:43:44.781Z,11.58
2019-03-06T09:46:22.850Z,11.48
2019-03-06T09:49:11.772Z,11.30
2019-03-06T09:52:08.452Z,11.41
2019-03-06T09:54:56.654Z,11.22
2019-03-06T09:57:43.297Z,11.01
2019-03-06T10:00:25.836Z,10.80
2019-03-06T10:03:14.603Z,10.60
2019-03-06T10:06:20.986Z,10.54
2019-03-06T10:09:14.855Z,10.46
2019-03-06T10:12:08.737Z,10.53
2019-03-06T10:14:43.560Z,10.61
2019-03-06T10:17:24.437Z,10.75
2019-03-06T10:19:56.683Z,10.87
2019-03-06T10:22:25.913Z,10.99
2019-03-06T10:24:55.751Z,10.97
2019-03-06T10:27:25.081Z,10.99
2019-03-06T10:29:54.267Z,11.05
2019-03-06T10:32:23.528Z,11.02
2019-03-06T10:34:54.922Z,11.10
2019-03-06T10:37:23.679Z,11.06
2019-03-06T10:39:52.920Z,11.11
2019-03-06T10:42:22.114Z,11.10
2019-03-06T10:44:51.386Z,11.11
2019-03-06T10:47:20.577Z,11.27
2019-03-06T10:49:49.807Z,11.51
2019-03-06T10:52:19.002Z,11.70
2019-03-06T10:54:48.228Z,11.79
2019-03-06T10:57:17.435Z,11.86
2019-03-06T10:59:46.651Z,11.91
2019-03-06T11:02:15.840Z,12.06
2019-03-06T11:04:52.594Z,11.95
2019-03-06T11:07:22.498Z,11.89
2019-03-06T11:09:51.700Z,11.93
2019-03-06T11:12:20.906Z,11.93
2019-03-06T11:14:50.125Z,11.96
2019-03-06T11:17:19.545Z,11.97
2019-03-06T11:19:49.241Z,12.11
2019-03-06T11:22:18.660Z,12.29
2019-03-06T11:24:48.016Z,12.38
2019-03-06T11:27:17.273Z,12.45
2019-03-06T11:29:46.509Z,12.59
2019-03-06T11:32:15.815Z,12.59
2019-03-06T11:34:45.425Z,12.58
2019-03-06T11:37:15.231Z,12.66
2019-03-06T11:39:44.425Z,12.71
2019-03-06T11:42:13.626Z,12.88
2019-03-06T11:44:42.831Z,12.91
2019-03-06T11:47:12.324Z,13.00
2019-03-06T11:49:41.527Z,12.97
2019-03-06T11:52:10.761Z,12.96
2019-03-06T11:54:40.061Z,13.03
2019-03-06T11:57:09.375Z,13.18
2019-03-06T11:59:38.589Z,13.30
2019-03-06T12:02:07.908Z,13.52
2019-03-06T12:04:37.287Z,13.63
2019-03-06T12:07:06.754Z,13.66
2019-03-06T12:09:35.999Z,13.64
2019-03-06T12:12:05.868Z,13.58
2019-03-06T12:14:35.108Z,13.53
2019-03-06T12:17:04.332Z,13.45
2019-03-06T12:19:34.016Z,13.38
2019-03-06T12:22:03.213Z,13.43
2019-03-06T12:24:32.513Z,13.45
2019-03-06T12:27:01.711Z,13.50
2019-03-06T12:29:30.927Z,13.49
2019-03-06T12:32:00.245Z,13.44
2019-03-06T12:34:29.651Z,13.50
2019-03-06T12:36:58.861Z,13.49
2019-03-06T12:39:28.088Z,13.33
2019-03-06T12:41:58.820Z,13.34
2019-03-06T12:44:28.265Z,13.33
2019-03-06T12:46:58.483Z,13.27
2019-03-06T12:49:29.041Z,13.34
2019-03-06T12:51:58.243Z,13.40
2019-03-06T12:54:27.612Z,13.49
2019-03-06T12:56:56.830Z,13.53
2019-03-06T12:59:26.073Z,13.60
2019-03-06T13:01:55.280Z,13.68
2019-03-06T13:04:24.473Z,13.59
2019-03-06T13:06:53.680Z,13.52
2019-03-06T13:09:22.978Z,13.48
2019-03-06T13:11:52.201Z,13.46
2019-03-06T13:14:21.717Z,13.49
2019-03-06T13:16:51.036Z,13.45
2019-03-06T13:19:20.386Z,13.45
2019-03-06T13:21:49.700Z,13.45
2019-03-06T13:24:18.950Z,13.45
2019-03-06T13:26:48.196Z,13.61
2019-03-06T13:29:17.611Z,13.77
2019-03-06T13:31:46.819Z,13.80
2019-03-06T13:34:50.130Z,13.74
2019-03-06T13:37:12.161Z,13.74
2019-03-06T13:39:41.397Z,13.67
2019-03-06T13:42:10.628Z,13.67
2019-03-06T13:44:39.862Z,13.66
2019-03-06T13:47:09.138Z,13.70
2019-03-06T13:49:38.365Z,13.70
2019-03-06T13:52:07.619Z,13.74
2019-03-06T13:54:36.852Z,13.87
2019-03-06T13:57:06.159Z,13.87
2019-03-06T13:59:35.344Z,13.95
2019-03-06T14:02:04.683Z,13.97
2019-03-06T14:04:33.933Z,13.99
2019-03-06T14:07:03.248Z,13.95
2019-03-06T14:09:32.454Z,13.95
2019-03-06T14:12:01.735Z,13.98
2019-03-06T14:14:30.928Z,13.96
2019-03-06T14:17:00.185Z,13.91
2019-03-06T14:19:29.455Z,13.89
2019-03-06T14:21:58.667Z,13.76
2019-03-06T14:24:28.002Z,13.68
2019-03-06T14:26:57.230Z,13.72
2019-03-06T14:29:26.528Z,13.75
2019-03-06T14:31:55.764Z,13.79
2019-03-06T14:34:25.222Z,13.72
2019-03-06T14:36:54.686Z,13.68
2019-03-06T14:39:29.149Z,13.66
2019-03-06T14:41:59.560Z,13.60
2019-03-06T14:44:28.863Z,13.61
2019-03-06T14:46:58.282Z,13.61
2019-03-06T14:49:27.499Z,13.52
2019-03-06T14:51:56.816Z,13.52
2019-03-06T14:54:26.182Z,13.52
2019-03-06T14:56:55.540Z,13.50
2019-03-06T14:59:24.844Z,13.52
2019-03-06T15:01:54.071Z,13.53
2019-03-06T15:04:23.330Z,13.52
2019-03-06T15:06:52.513Z,13.51
2019-03-06T15:09:28.658Z,13.53
2019-03-06T15:11:57.896Z,13.50
2019-03-06T15:14:35.810Z,13.41
2019-03-06T15:16:58.263Z,13.38
2019-03-06T15:19:27.600Z,13.34
2019-03-06T15:21:56.931Z,13.36
2019-03-06T15:24:26.301Z,13.32
2019-03-06T15:26:55.530Z,13.31
2019-03-06T15:29:24.830Z,13.32
2019-03-06T15:31:54.376Z,13.34
2019-03-06T15:34:24.505Z,13.27
2019-03-06T15:36:53.869Z,13.29
2019-03-06T15:39:31.317Z,13.26
2019-03-06T15:42:02.389Z,13.14
2019-03-06T15:44:32.488Z,13.09
2019-03-06T15:47:01.711Z,13.06
2019-03-06T15:49:31.067Z,13.04
2019-03-06T15:52:00.375Z,13.01
2019-03-06T15:54:29.787Z,13.05
2019-03-06T15:56:59.415Z,12.99
2019-03-06T15:59:28.843Z,12.98
2019-03-06T16:01:58.094Z,12.99
2019-03-06T16:04:27.369Z,12.95
2019-03-06T16:06:56.742Z,12.97
2019-03-06T16:09:26.855Z,12.92
2019-03-06T16:11:56.285Z,12.94
2019-03-06T16:14:25.756Z,12.92
2019-03-06T16:16:54.998Z,12.94
2019-03-06T16:19:24.262Z,12.93
2019-03-06T16:21:53.458Z,12.90
2019-03-06T16:24:23.198Z,12.91
2019-03-06T16:26:52.418Z,12.88
2019-03-06T16:29:23.696Z,12.90
2019-03-06T16:31:52.872Z,12.85
2019-03-06T16:34:22.124Z,12.82
2019-03-06T16:36:51.577Z,12.83
2019-03-06T16:39:21.462Z,12.83
2019-03-06T16:41:50.745Z,12.83
2019-03-06T16:44:20.402Z,12.76
2019-03-06T16:46:49.764Z,12.76
2019-03-06T16:49:19.007Z,12.79
2019-03-06T16:51:49.847Z,12.78
2019-03-06T16:54:19.610Z,12.77
2019-03-06T16:56:48.905Z,12.76
2019-03-06T16:59:18.270Z,12.82
2019-03-06T17:01:47.558Z,12.82
2019-03-06T17:04:19.228Z,12.79
2019-03-06T17:06:48.708Z,12.76
2019-03-06T17:09:18.458Z,12.68
2019-03-06T17:11:48.011Z,12.61
2019-03-06T17:14:17.338Z,12.55
2019-03-06T17:16:46.935Z,12.42
2019-03-06T17:19:16.394Z,12.34
2019-03-06T17:21:45.837Z,12.24
2019-03-06T17:24:15.399Z,12.11
2019-03-06T17:26:44.939Z,12.00
2019-03-06T17:29:15.278Z,11.96
2019-03-06T17:31:44.709Z,11.93
2019-03-06T17:34:14.330Z,11.87
2019-03-06T17:36:44.026Z,11.81
2019-03-06T17:39:15.774Z,11.76
2019-03-06T17:41:45.080Z,11.72
2019-03-06T17:44:14.310Z,11.66
2019-03-06T17:46:43.691Z,11.62
2019-03-06T17:49:13.172Z,11.61
2019-03-06T17:51:42.513Z,11.59
2019-03-06T17:54:11.923Z,11.54
2019-03-06T17:56:41.910Z,11.52
2019-03-06T17:59:11.296Z,11.55
2019-03-06T18:01:40.755Z,11.59
2019-03-06T18:04:14.833Z,11.54
2019-03-06T18:06:44.374Z,11.50
2019-03-06T18:09:13.827Z,11.39
2019-03-06T18:11:43.080Z,11.38
2019-03-06T18:14:12.307Z,11.31
2019-03-06T18:16:41.526Z,11.28
2019-03-06T18:19:11.042Z,11.30
2019-03-06T18:21:40.445Z,11.28
2019-03-06T18:24:09.746Z,11.22
2019-03-06T18:26:39.537Z,11.24
2019-03-06T18:29:08.903Z,11.22
2019-03-06T18:31:38.243Z,11.22
2019-03-06T18:34:07.703Z,11.22
2019-03-06T18:36:37.099Z,11.24
2019-03-06T18:39:17.770Z,11.24
2019-03-06T18:41:47.343Z,11.26
2019-03-06T18:44:16.682Z,11.26
2019-03-06T18:46:46.425Z,11.26
2019-03-06T18:49:15.706Z,11.25
2019-03-06T18:51:45.043Z,11.23
2019-03-06T18:54:14.445Z,11.25
2019-03-06T18:56:43.917Z,11.24
2019-03-06T18:59:13.381Z,11.21
2019-03-06T19:01:42.826Z,11.21
2019-03-06T19:04:12.244Z,11.27
2019-03-06T19:06:41.738Z,11.27
2019-03-06T19:09:11.545Z,11.35
2019-03-06T19:11:40.981Z,11.32
2019-03-06T19:14:10.519Z,11.27
2019-03-06T19:16:39.831Z,11.28
2019-03-06T19:19:09.550Z,11.25
2019-03-06T19:21:39.042Z,11.21
2019-03-06T19:24:08.403Z,11.19
2019-03-06T19:26:37.997Z,11.17
2019-03-06T19:29:07.310Z,11.20
2019-03-06T19:31:36.567Z,11.21
2019-03-06T19:34:05.917Z,11.17
2019-03-06T19:36:35.527Z,11.19
2019-03-06T19:39:10.126Z,11.20
2019-03-06T19:41:39.393Z,11.23
2019-03-06T19:44:08.755Z,11.24
2019-03-06T19:46:38.035Z,11.29
2019-03-06T19:49:07.401Z,11.29
2019-03-06T19:51:36.751Z,11.27
2019-03-06T19:54:06.049Z,11.26
2019-03-06T19:56:35.788Z,11.25
2019-03-06T19:59:05.358Z,11.27
2019-03-06T20:01:34.868Z,11.25
2019-03-06T20:04:04.424Z,11.29
2019-03-06T20:06:33.745Z,11.31
2019-03-06T20:09:03.552Z,11.29
2019-03-06T20:11:34.841Z,11.32
2019-03-06T20:14:04.267Z,11.35
2019-03-06T20:16:34.124Z,11.36
2019-03-06T20:19:03.813Z,11.36
2019-03-06T20:21:33.639Z,11.37
2019-03-06T20:24:03.035Z,11.37
2019-03-06T20:26:32.441Z,11.34
2019-03-06T20:29:02.246Z,11.36
2019-03-06T20:31:32.172Z,11.39
2019-03-06T20:34:01.939Z,11.45
2019-03-06T20:36:31.618Z,11.56
2019-03-06T20:39:01.192Z,11.61
2019-03-06T20:41:30.756Z,11.60
2019-03-06T20:44:00.871Z,11.59
2019-03-06T20:46:30.306Z,11.58
2019-03-06T20:48:59.563Z,11.58
2019-03-06T20:51:29.836Z,11.50
2019-03-06T20:54:00.899Z,11.59
2019-03-06T20:56:30.305Z,11.53
2019-03-06T20:58:59.677Z,11.49
2019-03-06T21:01:29.659Z,11.48
2019-03-06T21:03:59.085Z,11.45
2019-03-06T21:06:33.514Z,11.36
2019-03-06T21:08:59.606Z,11.31
2019-03-06T21:11:29.058Z,11.33
2019-03-06T21:13:58.375Z,11.33
2019-03-06T21:16:28.008Z,11.27
2019-03-06T21:18:57.865Z,11.22
2019-03-06T21:21:27.147Z,11.22
2019-03-06T21:23:56.466Z,11.20
2019-03-06T21:26:25.814Z,11.18
2019-03-06T21:28:55.045Z,11.22
2019-03-06T21:31:24.320Z,11.17
2019-03-06T21:33:53.892Z,11.16
2019-03-06T21:36:23.369Z,11.16
2019-03-06T21:38:52.804Z,11.07
2019-03-06T21:41:22.477Z,10.99
2019-03-06T21:43:51.817Z,10.97
2019-03-06T21:46:21.403Z,10.93
2019-03-06T21:48:50.758Z,10.89
2019-03-06T21:51:20.059Z,10.89
2019-03-06T21:53:49.330Z,10.86
2019-03-06T21:56:18.623Z,10.81
2019-03-06T21:58:47.909Z,10.82
2019-03-06T22:01:17.377Z,10.76
2019-03-06T22:03:46.627Z,10.73
2019-03-06T22:06:17.653Z,10.70
2019-03-06T22:08:46.829Z,10.68
2019-03-06T22:11:16.033Z,10.64
2019-03-06T22:13:45.295Z,10.61
2019-03-06T22:16:14.528Z,10.61
2019-03-06T22:18:43.758Z,10.59
2019-03-06T22:21:12.976Z,10.57
2019-03-06T22:23:42.166Z,10.55
2019-03-06T22:26:11.362Z,10.54
2019-03-06T22:28:40.680Z,10.55
2019-03-06T22:31:09.882Z,10.53
2019-03-06T22:33:39.130Z,10.52
2019-03-06T22:36:08.328Z,10.52
2019-03-06T22:38:37.598Z,10.54
2019-03-06T22:41:06.845Z,10.52
2019-03-06T22:43:36.071Z,10.51
2019-03-06T22:46:05.271Z,10.49
2019-03-06T22:48:36.842Z,10.49
2019-03-06T22:51:05.427Z,10.47
2019-03-06T22:53:34.689Z,10.45
2019-03-06T22:56:04.052Z,10.46
2019-03-06T22:58:33.423Z,10.45
2019-03-06T23:01:11.627Z,10.40
2019-03-06T23:03:40.813Z,10.39
2019-03-06T23:06:10.018Z,10.37
2019-03-06T23:08:39.237Z,10.35
2019-03-06T23:11:08.849Z,10.31
2019-03-06T23:13:38.029Z,10.29
2019-03-06T23:16:07.201Z,10.28
2019-03-06T23:18:36.448Z,10.24
2019-03-06T23:21:05.724Z,10.25
2019-03-06T23:23:34.939Z,10.26
2019-03-06T23:26:04.265Z,10.26
2019-03-06T23:28:33.463Z,10.25
2019-03-06T23:31:02.643Z,10.24
2019-03-06T23:33:31.831Z,10.27
2019-03-06T23:36:01.010Z,10.32
2019-03-06T23:38:30.398Z,10.47
2019-03-06T23:40:59.568Z,10.49
2019-03-06T23:43:28.787Z,10.59
2019-03-06T23:45:57.963Z,10.59
2019-03-06T23:48:27.169Z,10.59
2019-03-06T23:50:56.351Z,10.59
2019-03-06T23:53:50.739Z,10.65
2019-03-06T23:56:19.929Z,10.65
2019-03-06T23:58:49.131Z,10.72
